createdAt,value
2022-08-16T00:01:41.960Z,99241.91
2022-08-16T00:04:09.609Z,99249.00
2022-08-16T00:06:39.484Z,99248.09
2022-08-16T00:09:10.768Z,99249.84
2022-08-16T00:11:41.227Z,99254.28
2022-08-16T00:14:15.938Z,99256.03
2022-08-16T00:17:01.134Z,99260.47
2022-08-16T00:19:40.984Z,99253.38
2022-08-16T00:22:12.749Z,99256.94
2022-08-16T00:24:41.166Z,99258.69
2022-08-16T00:27:12.553Z,99256.88
2022-08-16T00:29:39.926Z,99254.28
2022-08-16T00:32:10.950Z,99258.69
2022-08-16T00:34:43.465Z,99251.56
2022-08-16T00:37:57.567Z,99253.31
2022-08-16T00:40:54.117Z,99247.13
2022-08-16T00:43:43.424Z,99251.53
2022-08-16T00:46:37.668Z,99253.28
2022-08-16T00:49:21.843Z,99242.66
2022-08-16T00:51:54.907Z,99255.94
2022-08-16T00:54:28.727Z,99240.00
2022-08-16T00:57:00.118Z,99249.75
2022-08-16T00:59:34.601Z,99248.00
2022-08-16T01:02:21.805Z,99250.69
2022-08-16T01:05:10.475Z,99259.53
2022-08-16T01:07:51.338Z,99264.84
2022-08-16T01:10:32.111Z,99268.38
2022-08-16T01:13:28.089Z,99263.94
2022-08-16T01:16:12.337Z,99268.38
2022-08-16T01:19:23.670Z,99273.66
2022-08-16T01:22:47.521Z,99285.13
2022-08-16T01:25:04.621Z,99291.34
2022-08-16T01:28:19.720Z,99286.03
2022-08-16T01:30:55.258Z,99292.22
2022-08-16T01:33:25.117Z,99293.09
2022-08-16T01:36:09.419Z,99295.72
2022-08-16T01:38:53.023Z,99298.38
2022-08-16T01:41:30.753Z,99295.75
2022-08-16T01:44:01.632Z,99298.47
2022-08-16T01:46:40.870Z,99297.63
2022-08-16T01:49:43.705Z,99300.25
2022-08-16T01:52:29.385Z,99308.22
2022-08-16T01:55:05.203Z,99302.94
2022-08-16T01:57:35.574Z,99301.16
2022-08-16T02:00:19.246Z,99302.06
2022-08-16T02:02:52.494Z,99304.72
2022-08-16T02:05:23.691Z,99300.31
2022-08-16T02:07:52.139Z,99302.06
2022-08-16T02:10:21.258Z,99303.81
2022-08-16T02:12:55.811Z,99294.09
2022-08-16T02:15:35.301Z,99292.34
2022-08-16T02:18:04.902Z,99302.09
2022-08-16T02:20:42.707Z,99296.78
2022-08-16T02:23:13.954Z,99296.78
2022-08-16T02:25:51.800Z,99291.47
2022-08-16T02:28:23.566Z,99294.09
2022-08-16T02:30:54.951Z,99290.56
2022-08-16T02:33:43.660Z,99294.09
2022-08-16T02:36:48.087Z,99285.25
2022-08-16T02:39:07.045Z,99288.78
2022-08-16T02:41:39.582Z,99287.00
2022-08-16T02:44:11.297Z,99287.00
2022-08-16T02:46:50.429Z,99295.81
2022-08-16T02:49:22.063Z,99299.38
2022-08-16T02:51:59.566Z,99308.16
2022-08-16T02:54:29.032Z,99304.66
2022-08-16T02:56:57.187Z,99308.22
2022-08-16T02:59:24.567Z,99305.56
2022-08-16T03:01:51.929Z,99296.66
2022-08-16T03:04:51.251Z,99300.25
2022-08-16T03:07:16.153Z,99298.41
2022-08-16T03:09:55.137Z,99306.38
2022-08-16T03:12:30.024Z,99296.63
2022-08-16T03:14:59.153Z,99302.84
2022-08-16T03:17:32.344Z,99308.13
2022-08-16T03:20:05.677Z,99315.19
2022-08-16T03:22:37.357Z,99317.81
2022-08-16T03:25:15.696Z,99317.81
2022-08-16T03:27:53.061Z,99320.47
2022-08-16T03:30:30.647Z,99315.16
2022-08-16T03:33:03.677Z,99324.88
2022-08-16T03:35:40.620Z,99330.19
2022-08-16T03:38:35.401Z,99322.22
2022-08-16T03:41:14.104Z,99324.91
2022-08-16T03:43:54.465Z,99329.38
2022-08-16T03:46:47.236Z,99319.63
2022-08-16T03:49:14.539Z,99322.28
2022-08-16T03:51:44.950Z,99317.88
2022-08-16T03:54:20.369Z,99317.88
2022-08-16T03:56:57.781Z,99315.22
2022-08-16T03:59:29.341Z,99316.06
2022-08-16T04:02:02.358Z,99316.94
2022-08-16T04:04:33.954Z,99316.91
2022-08-16T04:07:07.402Z,99308.09
2022-08-16T04:09:38.657Z,99311.56
2022-08-16T04:12:53.797Z,99316.00
2022-08-16T04:15:02.449Z,99326.59
2022-08-16T04:17:32.622Z,99327.47
2022-08-16T04:20:24.028Z,99331.91
2022-08-16T04:22:57.870Z,99326.56
2022-08-16T04:25:27.247Z,99331.88
2022-08-16T04:27:55.987Z,99331.88
2022-08-16T04:30:34.752Z,99336.28
2022-08-16T04:33:04.688Z,99341.63
2022-08-16T04:35:35.893Z,99346.94
2022-08-16T04:38:10.992Z,99339.88
2022-08-16T04:40:50.352Z,99343.38
2022-08-16T04:43:19.290Z,99339.84
2022-08-16T04:45:47.413Z,99350.47
2022-08-16T04:48:32.887Z,99364.63
2022-08-16T04:51:11.637Z,99368.19
2022-08-16T04:53:48.133Z,99371.78
2022-08-16T04:56:19.454Z,99379.81
2022-08-16T04:58:47.387Z,99377.19
2022-08-16T05:01:18.785Z,99381.59
2022-08-16T05:04:00.727Z,99387.81
2022-08-16T05:06:42.246Z,99384.25
2022-08-16T05:09:17.965Z,99385.06
2022-08-16T05:11:46.900Z,99381.53
2022-08-16T05:14:42.095Z,99378.94
2022-08-16T05:17:04.460Z,99384.25
2022-08-16T05:19:36.101Z,99381.59
2022-08-16T05:22:18.146Z,99386.91
2022-08-16T05:24:54.954Z,99384.28
2022-08-16T05:27:23.153Z,99389.59
2022-08-16T05:30:00.843Z,99391.34
2022-08-16T05:32:45.861Z,99387.84
2022-08-16T05:35:16.634Z,99394.06
2022-08-16T05:38:02.738Z,99399.41
2022-08-16T05:40:59.651Z,99402.97
2022-08-16T05:43:43.724Z,99408.31
2022-08-16T05:46:30.526Z,99406.56
2022-08-16T05:49:09.470Z,99417.22
2022-08-16T05:51:41.677Z,99419.91
2022-08-16T05:54:17.461Z,99419.88
2022-08-16T05:56:57.902Z,99423.38
2022-08-16T05:59:28.398Z,99424.28
2022-08-16T06:01:57.490Z,99428.69
2022-08-16T06:04:34.888Z,99422.53
2022-08-16T06:07:07.177Z,99429.59
2022-08-16T06:09:43.533Z,99428.69
2022-08-16T06:12:28.012Z,99431.31
2022-08-16T06:15:08.040Z,99435.78
2022-08-16T06:17:43.885Z,99435.78
2022-08-16T06:20:35.480Z,99432.22
2022-08-16T06:23:17.469Z,99437.53
2022-08-16T06:26:07.724Z,99434.84
2022-08-16T06:28:41.686Z,99435.72
2022-08-16T06:31:16.660Z,99431.25
2022-08-16T06:33:47.751Z,99429.47
2022-08-16T06:36:20.970Z,99439.19
2022-08-16T06:39:06.143Z,99431.16
2022-08-16T06:42:00.345Z,99432.81
2022-08-16T06:44:51.252Z,99424.81
2022-08-16T06:47:52.828Z,99437.22
2022-08-16T06:50:28.467Z,99446.09
2022-08-16T06:53:00.347Z,99446.97
2022-08-16T06:55:34.582Z,99449.63
2022-08-16T06:58:08.464Z,99454.03
2022-08-16T07:00:51.812Z,99455.88
2022-08-16T07:03:26.897Z,99454.13
2022-08-16T07:05:57.798Z,99454.97
2022-08-16T07:08:33.505Z,99448.72
2022-08-16T07:11:01.447Z,99453.19
2022-08-16T07:14:00.556Z,99449.59
2022-08-16T07:16:20.731Z,99453.03
2022-08-16T07:19:01.667Z,99452.97
2022-08-16T07:21:46.262Z,99447.69
2022-08-16T07:24:29.844Z,99445.78
2022-08-16T07:27:08.419Z,99442.34
2022-08-16T07:29:38.456Z,99443.13
2022-08-16T07:32:12.530Z,99442.19
2022-08-16T07:34:48.304Z,99450.94
2022-08-16T07:37:19.365Z,99450.81
2022-08-16T07:40:11.169Z,99452.56
2022-08-16T07:42:41.923Z,99453.38
2022-08-16T07:45:11.559Z,99448.91
2022-08-16T07:47:45.046Z,99452.25
2022-08-16T07:50:57.342Z,99455.56
2022-08-16T07:53:06.948Z,99457.13
2022-08-16T07:55:45.761Z,99459.78
2022-08-16T07:58:34.502Z,99461.50
2022-08-16T08:01:10.718Z,99460.44
2022-08-16T08:03:48.836Z,99468.31
2022-08-16T08:06:25.007Z,99467.31
2022-08-16T08:08:57.482Z,99461.09
2022-08-16T08:11:29.872Z,99462.78
2022-08-16T08:14:03.863Z,99456.53
2022-08-16T08:16:39.232Z,99460.75
2022-08-16T08:19:18.369Z,99467.75
2022-08-16T08:21:59.807Z,99467.66
2022-08-16T08:24:47.614Z,99457.81
2022-08-16T08:27:22.826Z,99461.50
2022-08-16T08:30:09.162Z,99459.63
2022-08-16T08:32:58.572Z,99463.81
2022-08-16T08:35:29.528Z,99459.19
2022-08-16T08:37:59.327Z,99462.75
2022-08-16T08:40:30.636Z,99462.53
2022-08-16T08:43:12.107Z,99461.50
2022-08-16T08:45:48.805Z,99456.94
2022-08-16T08:49:09.062Z,99467.06
2022-08-16T08:51:42.325Z,99472.19
2022-08-16T08:54:20.543Z,99465.75
2022-08-16T08:57:22.879Z,99469.25
2022-08-16T09:00:26.840Z,99464.72
2022-08-16T09:02:58.378Z,99469.31
2022-08-16T09:05:35.799Z,99466.72
2022-08-16T09:08:06.708Z,99465.00
2022-08-16T09:11:01.944Z,99467.97
2022-08-16T09:13:33.228Z,99462.06
2022-08-16T09:16:01.095Z,99467.16
2022-08-16T09:18:35.723Z,99470.25
2022-08-16T09:21:09.469Z,99469.13
2022-08-16T09:23:38.867Z,99477.00
2022-08-16T09:26:44.882Z,99468.13
2022-08-16T09:29:14.670Z,99471.97
2022-08-16T09:31:47.167Z,99469.56
2022-08-16T09:34:20.841Z,99474.13
2022-08-16T09:36:49.466Z,99470.44
2022-08-16T09:39:22.308Z,99477.06
2022-08-16T09:41:53.112Z,99473.25
2022-08-16T09:45:11.422Z,99473.19
2022-08-16T09:47:12.988Z,99472.84
2022-08-16T09:49:41.399Z,99475.97
2022-08-16T09:52:10.598Z,99473.22
2022-08-16T09:54:44.242Z,99470.84
2022-08-16T09:57:12.474Z,99473.47
2022-08-16T09:59:42.100Z,99472.41
2022-08-16T10:02:26.084Z,99464.75
2022-08-16T10:04:57.637Z,99456.28
2022-08-16T10:07:38.391Z,99460.84
2022-08-16T10:10:19.051Z,99448.94
2022-08-16T10:13:16.447Z,99453.63
2022-08-16T10:15:55.517Z,99448.16
2022-08-16T10:19:00.428Z,99452.06
2022-08-16T10:21:11.519Z,99443.53
2022-08-16T10:23:39.254Z,99439.22
2022-08-16T10:27:16.445Z,99444.25
2022-08-16T10:28:54.111Z,99448.44
2022-08-16T10:31:46.094Z,99440.47
2022-08-16T10:34:31.368Z,99447.38
2022-08-16T10:36:56.960Z,99436.44
2022-08-16T10:39:24.998Z,99441.00
2022-08-16T10:41:52.336Z,99434.88
2022-08-16T10:44:19.663Z,99438.00
2022-08-16T10:46:47.052Z,99440.97
2022-08-16T10:49:16.610Z,99436.94
2022-08-16T10:52:02.921Z,99436.03
2022-08-16T10:54:58.692Z,99441.56
2022-08-16T10:57:24.587Z,99435.34
2022-08-16T10:59:57.844Z,99438.16
2022-08-16T11:02:57.835Z,99443.56
2022-08-16T11:05:17.318Z,99442.88
2022-08-16T11:07:52.346Z,99443.28
2022-08-16T11:19:05.402Z,99455.75
2022-08-16T11:24:42.510Z,99452.50
2022-08-16T11:27:22.929Z,99450.25
2022-08-16T11:29:57.218Z,99453.84
2022-08-16T11:32:31.473Z,99444.88
2022-08-16T11:35:17.234Z,99441.03
2022-08-16T11:38:46.541Z,99447.50
2022-08-16T11:40:52.558Z,99444.16
2022-08-16T11:43:26.402Z,99445.59
2022-08-16T11:45:57.782Z,99440.75
2022-08-16T11:48:33.336Z,99447.91
2022-08-16T11:51:02.216Z,99445.00
2022-08-16T11:53:35.912Z,99446.72
2022-08-16T11:56:04.964Z,99449.56
2022-08-16T11:58:33.967Z,99447.41
2022-08-16T12:01:01.603Z,99446.19
2022-08-16T12:03:34.945Z,99439.03
2022-08-16T12:06:25.468Z,99437.69
2022-08-16T12:09:00.841Z,99432.06
2022-08-16T12:11:32.053Z,99436.81
2022-08-16T12:14:05.055Z,99437.03
2022-08-16T12:16:35.553Z,99431.97
2022-08-16T12:19:10.649Z,99435.16
2022-08-16T12:21:59.175Z,99433.00
2022-08-16T12:24:28.419Z,99433.34
2022-08-16T12:26:57.274Z,99423.81
2022-08-16T12:29:29.438Z,99422.00
2022-08-16T12:32:26.515Z,99424.69
2022-08-16T12:34:50.871Z,99418.69
2022-08-16T12:37:24.453Z,99419.91
2022-08-16T12:39:56.237Z,99419.97
2022-08-16T12:42:35.364Z,99421.09
2022-08-16T12:45:13.594Z,99414.53
2022-08-16T12:48:29.760Z,99420.13
2022-08-16T12:50:49.211Z,99412.25
2022-08-16T12:53:20.498Z,99412.91
2022-08-16T12:55:49.930Z,99410.06
2022-08-16T12:58:49.577Z,99406.75
2022-08-16T13:01:09.448Z,99407.03
2022-08-16T13:03:40.553Z,99398.06
2022-08-16T13:06:08.880Z,99398.19
2022-08-16T13:08:36.712Z,99392.03
2022-08-16T13:11:07.643Z,99388.88
2022-08-16T13:13:35.932Z,99386.84
2022-08-16T13:16:15.170Z,99379.28
2022-08-16T13:18:52.843Z,99378.94
2022-08-16T13:21:23.633Z,99373.97
2022-08-16T13:23:55.267Z,99368.94
2022-08-16T13:26:26.301Z,99367.06
2022-08-16T13:28:54.628Z,99369.88
2022-08-16T13:31:21.961Z,99366.63
2022-08-16T13:33:51.908Z,99367.69
2022-08-16T13:36:38.785Z,99369.34
2022-08-16T13:39:10.150Z,99366.97
2022-08-16T13:41:38.806Z,99359.13
2022-08-16T13:44:09.115Z,99352.53
2022-08-16T13:46:37.276Z,99365.22
2022-08-16T13:49:06.073Z,99359.50
2022-08-16T13:51:33.453Z,99364.84
2022-08-16T13:54:05.847Z,99363.31
2022-08-16T13:56:39.644Z,99360.09
2022-08-16T13:59:20.948Z,99361.34
2022-08-16T14:01:59.754Z,99360.56
2022-08-16T14:04:38.492Z,99358.81
2022-08-16T14:07:13.180Z,99366.59
2022-08-16T14:09:47.625Z,99356.91
2022-08-16T14:12:32.749Z,99355.63
2022-08-16T14:15:00.969Z,99348.88
2022-08-16T14:17:31.248Z,99348.16
2022-08-16T14:20:20.046Z,99341.84
2022-08-16T14:22:52.438Z,99341.44
2022-08-16T14:25:25.077Z,99342.81
2022-08-16T14:27:54.882Z,99338.78
2022-08-16T14:30:24.326Z,99338.78
2022-08-16T14:32:52.695Z,99333.56
2022-08-16T14:35:36.559Z,99329.13
2022-08-16T14:38:18.287Z,99337.81
2022-08-16T14:40:55.563Z,99326.91
2022-08-16T14:43:25.558Z,99328.31
2022-08-16T14:45:57.052Z,99337.81
2022-08-16T14:48:25.886Z,99334.16
2022-08-16T14:50:54.740Z,99331.31
2022-08-16T14:53:24.567Z,99339.66
2022-08-16T14:55:53.632Z,99330.72
2022-08-16T14:58:34.563Z,99331.63
2022-08-16T15:01:06.257Z,99333.22
2022-08-16T15:03:37.894Z,99327.66
2022-08-16T15:06:05.980Z,99319.94
2022-08-16T15:08:36.137Z,99323.50
2022-08-16T15:11:07.714Z,99321.09
2022-08-16T15:13:36.298Z,99320.06
2022-08-16T15:16:05.791Z,99317.03
2022-08-16T15:18:33.779Z,99318.31
2022-08-16T15:21:05.161Z,99312.09
2022-08-16T15:23:36.208Z,99319.28
2022-08-16T15:26:08.289Z,99313.78
2022-08-16T15:28:38.874Z,99318.53
2022-08-16T15:31:13.186Z,99319.34
2022-08-16T15:33:57.948Z,99314.13
2022-08-16T15:36:26.338Z,99312.97
2022-08-16T15:39:07.024Z,99317.09
2022-08-16T15:41:47.064Z,99312.50
2022-08-16T15:44:22.690Z,99317.66
2022-08-16T15:46:58.532Z,99308.56
2022-08-16T15:49:38.053Z,99307.84
2022-08-16T15:52:33.777Z,99304.41
2022-08-16T15:55:23.556Z,99304.38
2022-08-16T15:57:51.558Z,99302.63
2022-08-16T16:00:20.617Z,99308.16
2022-08-16T16:02:49.636Z,99305.25
2022-08-16T16:05:18.951Z,99307.44
2022-08-16T16:07:55.880Z,99296.13
2022-08-16T16:10:29.407Z,99297.47
2022-08-16T16:13:05.296Z,99295.13
2022-08-16T16:15:55.306Z,99302.69
2022-08-16T16:18:25.910Z,99299.47
2022-08-16T16:21:07.888Z,99292.28
2022-08-16T16:23:55.131Z,99294.38
2022-08-16T16:26:26.706Z,99287.59
2022-08-16T16:29:07.571Z,99288.81
2022-08-16T16:31:59.794Z,99286.59
2022-08-16T16:34:32.391Z,99283.66
2022-08-16T16:37:03.641Z,99286.75
2022-08-16T16:39:32.543Z,99287.69
2022-08-16T16:42:00.123Z,99290.81
2022-08-16T16:44:33.556Z,99295.78
2022-08-16T16:47:01.288Z,99292.53
2022-08-16T16:49:28.465Z,99284.44
2022-08-16T16:52:07.424Z,99287.66
2022-08-16T16:54:35.785Z,99284.47
2022-08-16T16:57:03.873Z,99282.06
2022-08-16T16:59:31.317Z,99282.53
2022-08-16T17:02:41.710Z,99295.13
2022-08-16T17:04:48.701Z,99285.59
2022-08-16T17:07:16.867Z,99286.91
2022-08-16T17:09:46.768Z,99282.31
2022-08-16T17:12:25.276Z,99289.25
2022-08-16T17:15:02.500Z,99287.53
2022-08-16T17:17:29.829Z,99290.88
2022-08-16T17:20:05.651Z,99280.97
2022-08-16T17:22:41.332Z,99286.44
2022-08-16T17:25:12.174Z,99296.13
2022-08-16T17:27:40.481Z,99291.63
2022-08-16T17:30:21.710Z,99293.09
2022-08-16T17:33:05.069Z,99300.63
2022-08-16T17:35:55.633Z,99300.31
2022-08-16T17:38:39.071Z,99301.63
2022-08-16T17:41:12.069Z,99306.56
2022-08-16T17:43:44.433Z,99315.28
2022-08-16T17:46:50.415Z,99308.91
2022-08-16T17:49:02.677Z,99323.50
2022-08-16T17:51:29.995Z,99319.94
2022-08-16T17:53:57.338Z,99319.94
2022-08-16T17:56:24.695Z,99316.84
2022-08-16T17:58:52.267Z,99321.81
2022-08-16T18:01:25.997Z,99323.63
2022-08-16T18:04:07.603Z,99330.13
2022-08-16T18:06:39.701Z,99330.97
2022-08-16T18:09:08.941Z,99332.88
2022-08-16T18:11:40.659Z,99319.84
2022-08-16T18:14:11.151Z,99327.50
2022-08-16T18:16:40.774Z,99336.34
2022-08-16T18:19:10.307Z,99332.81
2022-08-16T18:21:56.413Z,99334.38
2022-08-16T18:24:24.802Z,99336.81
2022-08-16T18:26:52.968Z,99340.53
2022-08-16T18:29:21.173Z,99344.25
2022-08-16T18:31:50.840Z,99342.81
2022-08-16T18:34:20.550Z,99352.31
2022-08-16T18:36:48.219Z,99351.03
2022-08-16T18:39:16.185Z,99345.31
2022-08-16T18:41:46.963Z,99352.88
2022-08-16T18:44:26.750Z,99354.81
2022-08-16T18:46:56.285Z,99363.16
2022-08-16T18:49:23.764Z,99353.81
2022-08-16T18:51:51.112Z,99355.25
2022-08-16T18:54:18.922Z,99361.75
2022-08-16T18:56:56.873Z,99365.59
2022-08-16T18:59:30.540Z,99360.22
2022-08-16T19:02:04.434Z,99362.19
2022-08-16T19:04:47.772Z,99355.50
2022-08-16T19:07:29.676Z,99366.34
2022-08-16T19:10:01.700Z,99364.75
2022-08-16T19:12:38.323Z,99362.34
2022-08-16T19:15:27.173Z,99361.63
2022-08-16T19:17:55.083Z,99370.59
2022-08-16T19:20:26.231Z,99376.16
2022-08-16T19:23:10.986Z,99377.34
2022-08-16T19:25:52.823Z,99375.53
2022-08-16T19:28:51.273Z,99371.06
2022-08-16T19:31:28.446Z,99368.53
2022-08-16T19:33:57.022Z,99375.00
2022-08-16T19:36:37.755Z,99366.31
2022-08-16T19:39:16.415Z,99377.28
2022-08-16T19:41:52.049Z,99380.09
2022-08-16T19:44:23.038Z,99375.78
2022-08-16T19:46:51.412Z,99386.59
2022-08-16T19:49:18.717Z,99391.97
2022-08-16T19:51:47.924Z,99399.19
2022-08-16T19:54:16.453Z,99393.91
2022-08-16T19:56:44.173Z,99394.81
2022-08-16T19:59:21.095Z,99399.53
2022-08-16T20:01:51.988Z,99410.25
2022-08-16T20:04:21.920Z,99404.91
2022-08-16T20:06:52.824Z,99414.00
2022-08-16T20:09:23.008Z,99413.34
2022-08-16T20:11:53.143Z,99418.72
2022-08-16T20:14:25.543Z,99418.72
2022-08-16T20:16:57.879Z,99418.72
2022-08-16T20:19:36.238Z,99418.75
2022-08-16T20:22:35.554Z,99420.47
2022-08-16T20:25:06.845Z,99424.91
2022-08-16T20:27:34.102Z,99421.44
2022-08-16T20:30:05.028Z,99425.72
2022-08-16T20:32:34.591Z,99423.97
2022-08-16T20:35:07.528Z,99424.06
2022-08-16T20:37:37.237Z,99424.81
2022-08-16T20:40:28.315Z,99431.88
2022-08-16T20:43:12.769Z,99428.31
2022-08-16T20:45:44.012Z,99431.03
2022-08-16T20:48:12.456Z,99422.84
2022-08-16T20:50:40.582Z,99425.59
2022-08-16T20:53:08.233Z,99430.25
2022-08-16T20:55:37.729Z,99443.34
2022-08-16T20:58:05.109Z,99441.78
2022-08-16T21:00:33.453Z,99450.91
2022-08-16T21:03:09.561Z,99444.00
2022-08-16T21:05:37.630Z,99441.28
2022-08-16T21:08:46.515Z,99445.63
2022-08-16T21:10:53.128Z,99461.63
2022-08-16T21:13:20.964Z,99462.53
2022-08-16T21:15:48.962Z,99459.41
2022-08-16T21:18:16.309Z,99467.50
2022-08-16T21:20:43.725Z,99467.63
2022-08-16T21:23:11.282Z,99476.94
2022-08-16T21:25:57.836Z,99478.44
2022-08-16T21:28:41.786Z,99480.16
2022-08-16T21:31:12.369Z,99480.16
2022-08-16T21:33:40.136Z,99471.09
2022-08-16T21:36:08.187Z,99473.94
2022-08-16T21:38:35.618Z,99477.06
2022-08-16T21:41:05.592Z,99468.81
2022-08-16T21:43:33.881Z,99479.22
2022-08-16T21:46:05.264Z,99482.84
2022-08-16T21:48:36.022Z,99489.09
2022-08-16T21:51:14.540Z,99489.22
2022-08-16T21:53:43.639Z,99475.84
2022-08-16T21:56:16.638Z,99475.84
2022-08-16T21:58:46.682Z,99489.41
2022-08-16T22:01:23.111Z,99499.28
2022-08-16T22:04:09.609Z,99523.56
2022-08-16T22:06:42.719Z,99536.19
2022-08-16T22:09:15.313Z,99536.25
2022-08-16T22:11:43.985Z,99542.31
2022-08-16T22:14:11.365Z,99544.50
2022-08-16T22:16:41.754Z,99546.06
2022-08-16T22:19:09.843Z,99556.66
2022-08-16T22:21:37.376Z,99558.31
2022-08-16T22:24:05.594Z,99568.28
2022-08-16T22:26:39.723Z,99560.69
2022-08-16T22:29:14.072Z,99557.31
2022-08-16T22:31:44.073Z,99561.19
2022-08-16T22:34:12.819Z,99558.75
2022-08-16T22:36:40.464Z,99564.31
2022-08-16T22:39:12.649Z,99554.75
2022-08-16T22:41:43.238Z,99553.09
2022-08-16T22:44:12.860Z,99558.53
2022-08-16T22:46:40.681Z,99563.16
2022-08-16T22:49:09.061Z,99570.31
2022-08-16T22:51:38.941Z,99564.34
2022-08-16T22:54:43.862Z,99568.34
2022-08-16T22:56:54.792Z,99570.41
2022-08-16T22:59:24.808Z,99575.97
2022-08-16T23:01:52.588Z,99572.56
2022-08-16T23:04:20.012Z,99570.91
2022-08-16T23:06:47.393Z,99569.28
2022-08-16T23:09:14.694Z,99554.25
2022-08-16T23:11:42.089Z,99561.53
2022-08-16T23:14:09.821Z,99567.72
2022-08-16T23:16:37.093Z,99573.97
2022-08-16T23:19:10.288Z,99581.09
2022-08-16T23:21:44.371Z,99592.78
2022-08-16T23:24:13.061Z,99581.25
2022-08-16T23:26:45.891Z,99581.31
2022-08-16T23:29:24.013Z,99584.00
2022-08-16T23:31:58.751Z,99576.84
2022-08-16T23:34:29.593Z,99571.44
2022-08-16T23:36:57.159Z,99568.88
2022-08-16T23:39:24.810Z,99569.88
2022-08-16T23:41:52.335Z,99569.91
2022-08-16T23:44:57.521Z,99567.19
2022-08-16T23:47:07.278Z,99577.91
2022-08-16T23:50:00.170Z,99579.69
2022-08-16T23:52:53.153Z,99572.59
2022-08-16T23:55:09.879Z,99560.94
2022-08-16T23:57:37.408Z,99566.22
